sensor_id;sensor_type;location;lat;lon;timestamp;P1;durP1;ratioP1;P2;durP2;ratioP2
75148;SDS011;63724;47.470;19.166;2022-11-15T00:00:27;31.58;;;15.57;;
75148;SDS011;63724;47.470;19.166;2022-11-15T00:03:50;33.83;;;14.85;;
75148;SDS011;63724;47.470;19.166;2022-11-15T00:07:11;44.27;;;15.47;;
75148;SDS011;63724;47.470;19.166;2022-11-15T00:10:59;32.95;;;14.07;;
75148;SDS011;63724;47.470;19.166;2022-11-15T00:14:21;33.38;;;14.43;;
75148;SDS011;63724;47.470;19.166;2022-11-15T00:17:42;31.75;;;13.40;;
75148;SDS011;63724;47.470;19.166;2022-11-15T00:21:04;37.15;;;14.20;;
75148;SDS011;63724;47.470;19.166;2022-11-15T00:24:27;32.17;;;13.37;;
75148;SDS011;63724;47.470;19.166;2022-11-15T00:27:47;33.80;;;12.43;;
75148;SDS011;63724;47.470;19.166;2022-11-15T00:31:10;35.80;;;14.55;;
75148;SDS011;63724;47.470;19.166;2022-11-15T00:34:32;34.95;;;13.85;;
75148;SDS011;63724;47.470;19.166;2022-11-15T00:37:53;37.90;;;15.38;;
75148;SDS011;63724;47.470;19.166;2022-11-15T00:41:14;38.80;;;15.07;;
75148;SDS011;63724;47.470;19.166;2022-11-15T00:44:35;35.60;;;14.45;;
75148;SDS011;63724;47.470;19.166;2022-11-15T00:47:56;31.98;;;13.93;;
75148;SDS011;63724;47.470;19.166;2022-11-15T00:51:17;35.05;;;13.95;;
75148;SDS011;63724;47.470;19.166;2022-11-15T00:54:39;37.80;;;15.65;;
75148;SDS011;63724;47.470;19.166;2022-11-15T00:57:59;27.10;;;12.70;;
75148;SDS011;63724;47.470;19.166;2022-11-15T01:01:20;30.85;;;13.63;;
75148;SDS011;63724;47.470;19.166;2022-11-15T01:04:41;32.13;;;13.90;;
75148;SDS011;63724;47.470;19.166;2022-11-15T01:08:03;24.92;;;12.73;;
75148;SDS011;63724;47.470;19.166;2022-11-15T01:11:23;34.28;;;12.40;;
75148;SDS011;63724;47.470;19.166;2022-11-15T01:14:44;28.63;;;12.60;;
75148;SDS011;63724;47.470;19.166;2022-11-15T01:18:05;24.42;;;11.50;;
75148;SDS011;63724;47.470;19.166;2022-11-15T01:21:26;30.60;;;13.32;;
75148;SDS011;63724;47.470;19.166;2022-11-15T01:24:49;28.38;;;12.43;;
75148;SDS011;63724;47.470;19.166;2022-11-15T01:28:10;34.83;;;14.07;;
75148;SDS011;63724;47.470;19.166;2022-11-15T01:31:31;31.67;;;13.20;;
75148;SDS011;63724;47.470;19.166;2022-11-15T01:34:52;32.38;;;12.50;;
75148;SDS011;63724;47.470;19.166;2022-11-15T01:38:13;33.10;;;14.00;;
75148;SDS011;63724;47.470;19.166;2022-11-15T01:41:34;24.17;;;13.30;;
75148;SDS011;63724;47.470;19.166;2022-11-15T01:44:55;32.22;;;14.77;;
75148;SDS011;63724;47.470;19.166;2022-11-15T01:48:16;27.83;;;13.43;;
75148;SDS011;63724;47.470;19.166;2022-11-15T01:51:37;29.40;;;12.75;;
75148;SDS011;63724;47.470;19.166;2022-11-15T01:55:02;28.98;;;12.48;;
75148;SDS011;63724;47.470;19.166;2022-11-15T01:58:30;29.13;;;11.73;;
75148;SDS011;63724;47.470;19.166;2022-11-15T02:01:51;24.88;;;12.95;;
75148;SDS011;63724;47.470;19.166;2022-11-15T02:05:12;29.03;;;13.00;;
75148;SDS011;63724;47.470;19.166;2022-11-15T02:08:33;28.50;;;13.25;;
75148;SDS011;63724;47.470;19.166;2022-11-15T02:11:54;25.50;;;13.00;;
75148;SDS011;63724;47.470;19.166;2022-11-15T02:15:15;24.27;;;11.35;;
75148;SDS011;63724;47.470;19.166;2022-11-15T02:18:41;23.50;;;12.07;;
75148;SDS011;63724;47.470;19.166;2022-11-15T02:43:56;34.85;;;11.43;;
75148;SDS011;63724;47.470;19.166;2022-11-15T02:47:21;41.50;;;12.68;;
75148;SDS011;63724;47.470;19.166;2022-11-15T02:50:43;43.45;;;12.73;;
75148;SDS011;63724;47.470;19.166;2022-11-15T02:54:04;37.70;;;12.10;;
75148;SDS011;63724;47.470;19.166;2022-11-15T03:01:16;24.42;;;10.50;;
75148;SDS011;63724;47.470;19.166;2022-11-15T03:04:53;24.60;;;10.80;;
75148;SDS011;63724;47.470;19.166;2022-11-15T03:11:48;17.30;;;9.85;;
75148;SDS011;63724;47.470;19.166;2022-11-15T03:15:21;19.37;;;11.13;;
75148;SDS011;63724;47.470;19.166;2022-11-15T03:18:47;24.02;;;11.07;;
75148;SDS011;63724;47.470;19.166;2022-11-15T03:22:17;24.25;;;11.23;;
75148;SDS011;63724;47.470;19.166;2022-11-15T03:25:42;22.27;;;10.70;;
75148;SDS011;63724;47.470;19.166;2022-11-15T03:29:08;23.10;;;10.52;;
75148;SDS011;63724;47.470;19.166;2022-11-15T03:32:35;28.20;;;10.97;;
75148;SDS011;63724;47.470;19.166;2022-11-15T03:35:59;20.77;;;10.45;;
75148;SDS011;63724;47.470;19.166;2022-11-15T03:39:20;19.27;;;9.82;;
75148;SDS011;63724;47.470;19.166;2022-11-15T03:42:48;17.75;;;10.18;;
75148;SDS011;63724;47.470;19.166;2022-11-15T03:46:58;16.88;;;9.55;;
75148;SDS011;63724;47.470;19.166;2022-11-15T03:50:23;17.77;;;10.40;;
75148;SDS011;63724;47.470;19.166;2022-11-15T03:53:45;18.65;;;10.35;;
75148;SDS011;63724;47.470;19.166;2022-11-15T03:57:06;16.88;;;10.02;;
75148;SDS011;63724;47.470;19.166;2022-11-15T04:00:27;18.95;;;10.45;;
75148;SDS011;63724;47.470;19.166;2022-11-15T04:03:48;20.23;;;9.38;;
75148;SDS011;63724;47.470;19.166;2022-11-15T04:07:09;26.30;;;10.53;;
75148;SDS011;63724;47.470;19.166;2022-11-15T04:10:31;28.27;;;9.77;;
75148;SDS011;63724;47.470;19.166;2022-11-15T04:13:51;26.67;;;10.63;;
75148;SDS011;63724;47.470;19.166;2022-11-15T04:17:12;21.42;;;10.02;;
75148;SDS011;63724;47.470;19.166;2022-11-15T04:20:33;25.23;;;10.20;;
75148;SDS011;63724;47.470;19.166;2022-11-15T04:24:13;18.10;;;10.47;;
75148;SDS011;63724;47.470;19.166;2022-11-15T04:27:34;17.77;;;10.32;;
75148;SDS011;63724;47.470;19.166;2022-11-15T04:30:55;17.75;;;9.88;;
75148;SDS011;63724;47.470;19.166;2022-11-15T04:34:17;18.20;;;9.80;;
75148;SDS011;63724;47.470;19.166;2022-11-15T04:37:38;15.20;;;8.13;;
75148;SDS011;63724;47.470;19.166;2022-11-15T04:41:02;18.23;;;10.10;;
75148;SDS011;63724;47.470;19.166;2022-11-15T04:44:23;17.70;;;10.25;;
75148;SDS011;63724;47.470;19.166;2022-11-15T04:47:44;22.73;;;10.65;;
75148;SDS011;63724;47.470;19.166;2022-11-15T04:51:06;17.17;;;10.10;;
75148;SDS011;63724;47.470;19.166;2022-11-15T04:54:27;21.40;;;10.65;;
75148;SDS011;63724;47.470;19.166;2022-11-15T04:57:56;17.77;;;9.80;;
75148;SDS011;63724;47.470;19.166;2022-11-15T05:01:19;18.80;;;10.00;;
75148;SDS011;63724;47.470;19.166;2022-11-15T05:04:40;19.73;;;11.68;;
75148;SDS011;63724;47.470;19.166;2022-11-15T05:08:01;18.20;;;10.98;;
75148;SDS011;63724;47.470;19.166;2022-11-15T05:11:22;19.67;;;11.35;;
75148;SDS011;63724;47.470;19.166;2022-11-15T05:14:43;28.17;;;11.70;;
75148;SDS011;63724;47.470;19.166;2022-11-15T05:18:04;24.27;;;11.75;;
75148;SDS011;63724;47.470;19.166;2022-11-15T05:21:25;27.58;;;11.95;;
75148;SDS011;63724;47.470;19.166;2022-11-15T05:24:46;28.23;;;12.02;;
75148;SDS011;63724;47.470;19.166;2022-11-15T05:28:07;29.52;;;12.40;;
75148;SDS011;63724;47.470;19.166;2022-11-15T05:31:28;25.47;;;12.57;;
75148;SDS011;63724;47.470;19.166;2022-11-15T05:34:49;25.10;;;12.40;;
75148;SDS011;63724;47.470;19.166;2022-11-15T05:38:10;35.03;;;12.30;;
75148;SDS011;63724;47.470;19.166;2022-11-15T05:41:33;34.20;;;13.13;;
75148;SDS011;63724;47.470;19.166;2022-11-15T05:44:56;26.08;;;12.45;;
75148;SDS011;63724;47.470;19.166;2022-11-15T05:48:18;25.40;;;13.07;;
75148;SDS011;63724;47.470;19.166;2022-11-15T05:51:39;29.35;;;15.05;;
75148;SDS011;63724;47.470;19.166;2022-11-15T05:55:02;26.10;;;13.55;;
75148;SDS011;63724;47.470;19.166;2022-11-15T05:58:24;22.20;;;12.23;;
75148;SDS011;63724;47.470;19.166;2022-11-15T06:01:45;24.00;;;12.40;;
75148;SDS011;63724;47.470;19.166;2022-11-15T06:05:06;24.13;;;12.73;;
75148;SDS011;63724;47.470;19.166;2022-11-15T06:08:27;24.52;;;13.98;;
75148;SDS011;63724;47.470;19.166;2022-11-15T06:11:48;25.65;;;14.45;;
75148;SDS011;63724;47.470;19.166;2022-11-15T06:15:09;25.05;;;12.73;;
75148;SDS011;63724;47.470;19.166;2022-11-15T06:18:31;22.42;;;13.00;;
75148;SDS011;63724;47.470;19.166;2022-11-15T06:21:53;25.37;;;13.27;;
75148;SDS011;63724;47.470;19.166;2022-11-15T06:25:14;23.60;;;12.85;;
75148;SDS011;63724;47.470;19.166;2022-11-15T06:28:35;24.80;;;13.45;;
75148;SDS011;63724;47.470;19.166;2022-11-15T06:31:57;23.63;;;12.38;;
75148;SDS011;63724;47.470;19.166;2022-11-15T06:35:18;23.67;;;12.98;;
75148;SDS011;63724;47.470;19.166;2022-11-15T06:38:38;25.90;;;11.90;;
75148;SDS011;63724;47.470;19.166;2022-11-15T06:41:59;24.77;;;12.52;;
75148;SDS011;63724;47.470;19.166;2022-11-15T06:45:20;24.42;;;14.05;;
75148;SDS011;63724;47.470;19.166;2022-11-15T06:48:41;31.27;;;12.88;;
75148;SDS011;63724;47.470;19.166;2022-11-15T06:52:02;23.13;;;12.07;;
75148;SDS011;63724;47.470;19.166;2022-11-15T06:55:23;23.90;;;13.33;;
75148;SDS011;63724;47.470;19.166;2022-11-15T06:58:44;21.05;;;12.65;;
75148;SDS011;63724;47.470;19.166;2022-11-15T07:02:05;26.42;;;13.60;;
75148;SDS011;63724;47.470;19.166;2022-11-15T07:05:26;28.15;;;14.32;;
75148;SDS011;63724;47.470;19.166;2022-11-15T07:08:48;31.80;;;14.18;;
75148;SDS011;63724;47.470;19.166;2022-11-15T07:12:09;25.37;;;13.97;;
75148;SDS011;63724;47.470;19.166;2022-11-15T07:15:30;23.75;;;13.80;;
75148;SDS011;63724;47.470;19.166;2022-11-15T07:18:51;24.77;;;15.25;;
75148;SDS011;63724;47.470;19.166;2022-11-15T07:22:12;25.98;;;14.70;;
75148;SDS011;63724;47.470;19.166;2022-11-15T07:25:34;26.30;;;15.45;;
75148;SDS011;63724;47.470;19.166;2022-11-15T07:28:55;28.83;;;16.30;;
75148;SDS011;63724;47.470;19.166;2022-11-15T07:32:16;29.63;;;16.73;;
75148;SDS011;63724;47.470;19.166;2022-11-15T07:35:37;23.60;;;14.25;;
75148;SDS011;63724;47.470;19.166;2022-11-15T07:38:58;26.23;;;13.82;;
75148;SDS011;63724;47.470;19.166;2022-11-15T07:42:19;25.75;;;13.77;;
75148;SDS011;63724;47.470;19.166;2022-11-15T07:45:58;28.17;;;15.10;;
75148;SDS011;63724;47.470;19.166;2022-11-15T07:49:19;25.52;;;13.65;;
75148;SDS011;63724;47.470;19.166;2022-11-15T07:52:40;26.60;;;14.15;;
75148;SDS011;63724;47.470;19.166;2022-11-15T07:56:01;28.23;;;15.45;;
75148;SDS011;63724;47.470;19.166;2022-11-15T07:59:22;26.88;;;15.70;;
75148;SDS011;63724;47.470;19.166;2022-11-15T08:02:43;34.47;;;15.73;;
75148;SDS011;63724;47.470;19.166;2022-11-15T08:06:04;29.40;;;17.50;;
75148;SDS011;63724;47.470;19.166;2022-11-15T08:09:25;29.25;;;16.33;;
75148;SDS011;63724;47.470;19.166;2022-11-15T08:12:46;37.33;;;16.83;;
75148;SDS011;63724;47.470;19.166;2022-11-15T08:16:07;38.58;;;18.70;;
75148;SDS011;63724;47.470;19.166;2022-11-15T08:19:28;32.23;;;18.33;;
75148;SDS011;63724;47.470;19.166;2022-11-15T08:22:49;33.03;;;17.25;;
75148;SDS011;63724;47.470;19.166;2022-11-15T08:26:11;30.17;;;16.83;;
75148;SDS011;63724;47.470;19.166;2022-11-15T08:29:32;31.55;;;18.13;;
75148;SDS011;63724;47.470;19.166;2022-11-15T08:32:55;36.50;;;16.52;;
75148;SDS011;63724;47.470;19.166;2022-11-15T08:36:17;29.10;;;15.80;;
75148;SDS011;63724;47.470;19.166;2022-11-15T08:39:38;29.63;;;16.88;;
75148;SDS011;63724;47.470;19.166;2022-11-15T08:42:59;33.10;;;16.23;;
75148;SDS011;63724;47.470;19.166;2022-11-15T08:46:22;27.17;;;15.93;;
75148;SDS011;63724;47.470;19.166;2022-11-15T08:49:44;31.92;;;16.98;;
75148;SDS011;63724;47.470;19.166;2022-11-15T08:53:06;27.63;;;15.93;;
75148;SDS011;63724;47.470;19.166;2022-11-15T08:56:27;31.83;;;17.02;;
75148;SDS011;63724;47.470;19.166;2022-11-15T08:59:48;30.80;;;16.83;;
75148;SDS011;63724;47.470;19.166;2022-11-15T09:03:09;31.23;;;17.77;;
75148;SDS011;63724;47.470;19.166;2022-11-15T09:06:30;37.67;;;18.58;;
75148;SDS011;63724;47.470;19.166;2022-11-15T09:09:51;29.27;;;17.60;;
75148;SDS011;63724;47.470;19.166;2022-11-15T09:13:12;31.33;;;17.20;;
75148;SDS011;63724;47.470;19.166;2022-11-15T09:16:34;37.35;;;18.63;;
75148;SDS011;63724;47.470;19.166;2022-11-15T09:19:55;35.55;;;18.75;;
75148;SDS011;63724;47.470;19.166;2022-11-15T09:23:16;31.10;;;17.65;;
75148;SDS011;63724;47.470;19.166;2022-11-15T09:26:37;30.50;;;17.80;;
75148;SDS011;63724;47.470;19.166;2022-11-15T09:29:58;30.95;;;18.23;;
75148;SDS011;63724;47.470;19.166;2022-11-15T09:33:19;30.77;;;17.77;;
75148;SDS011;63724;47.470;19.166;2022-11-15T09:36:40;35.35;;;18.85;;
75148;SDS011;63724;47.470;19.166;2022-11-15T09:40:01;35.55;;;19.17;;
75148;SDS011;63724;47.470;19.166;2022-11-15T09:51:33;33.25;;;18.23;;
75148;SDS011;63724;47.470;19.166;2022-11-15T09:54:38;33.10;;;18.83;;
75148;SDS011;63724;47.470;19.166;2022-11-15T09:58:02;33.88;;;17.83;;
75148;SDS011;63724;47.470;19.166;2022-11-15T10:01:17;29.43;;;17.43;;
75148;SDS011;63724;47.470;19.166;2022-11-15T10:04:28;27.80;;;16.73;;
75148;SDS011;63724;47.470;19.166;2022-11-15T10:07:32;28.30;;;17.52;;
75148;SDS011;63724;47.470;19.166;2022-11-15T10:10:49;24.33;;;15.98;;
75148;SDS011;63724;47.470;19.166;2022-11-15T10:14:18;26.73;;;14.85;;
75148;SDS011;63724;47.470;19.166;2022-11-15T10:20:48;26.83;;;14.68;;
75148;SDS011;63724;47.470;19.166;2022-11-15T10:23:52;27.23;;;16.00;;
75148;SDS011;63724;47.470;19.166;2022-11-15T10:26:55;29.58;;;15.55;;
75148;SDS011;63724;47.470;19.166;2022-11-15T10:29:58;27.42;;;17.67;;
75148;SDS011;63724;47.470;19.166;2022-11-15T10:33:08;26.23;;;15.10;;
75148;SDS011;63724;47.470;19.166;2022-11-15T10:39:18;26.30;;;16.48;;
75148;SDS011;63724;47.470;19.166;2022-11-15T10:42:28;28.77;;;16.85;;
75148;SDS011;63724;47.470;19.166;2022-11-15T10:45:31;28.65;;;16.02;;
75148;SDS011;63724;47.470;19.166;2022-11-15T10:48:35;24.87;;;16.17;;
75148;SDS011;63724;47.470;19.166;2022-11-15T10:51:48;28.73;;;16.48;;
75148;SDS011;63724;47.470;19.166;2022-11-15T10:54:53;32.30;;;17.63;;
75148;SDS011;63724;47.470;19.166;2022-11-15T10:58:03;30.83;;;17.88;;
75148;SDS011;63724;47.470;19.166;2022-11-15T11:01:08;32.28;;;18.00;;
75148;SDS011;63724;47.470;19.166;2022-11-15T11:04:11;30.07;;;16.77;;
75148;SDS011;63724;47.470;19.166;2022-11-15T11:07:54;31.35;;;15.63;;
75148;SDS011;63724;47.470;19.166;2022-11-15T11:10:55;30.63;;;17.65;;
75148;SDS011;63724;47.470;19.166;2022-11-15T11:14:11;29.42;;;16.90;;
75148;SDS011;63724;47.470;19.166;2022-11-15T11:20:25;33.33;;;15.37;;
75148;SDS011;63724;47.470;19.166;2022-11-15T11:23:46;28.75;;;16.67;;
75148;SDS011;63724;47.470;19.166;2022-11-15T11:26:55;28.55;;;16.08;;
75148;SDS011;63724;47.470;19.166;2022-11-15T11:43:14;27.92;;;17.15;;
75148;SDS011;63724;47.470;19.166;2022-11-15T11:49:46;28.25;;;18.30;;
75148;SDS011;63724;47.470;19.166;2022-11-15T11:52:56;32.50;;;17.87;;
75148;SDS011;63724;47.470;19.166;2022-11-15T11:56:31;31.60;;;17.38;;
75148;SDS011;63724;47.470;19.166;2022-11-15T11:59:42;31.75;;;17.83;;
75148;SDS011;63724;47.470;19.166;2022-11-15T12:09:41;36.90;;;21.93;;
75148;SDS011;63724;47.470;19.166;2022-11-15T12:12:56;35.28;;;20.23;;
75148;SDS011;63724;47.470;19.166;2022-11-15T12:16:21;34.85;;;20.95;;
75148;SDS011;63724;47.470;19.166;2022-11-15T12:19:29;35.33;;;19.63;;
75148;SDS011;63724;47.470;19.166;2022-11-15T12:26:07;34.07;;;18.17;;
75148;SDS011;63724;47.470;19.166;2022-11-15T12:29:15;38.58;;;20.90;;
75148;SDS011;63724;47.470;19.166;2022-11-15T12:32:28;37.92;;;20.80;;
75148;SDS011;63724;47.470;19.166;2022-11-15T12:35:37;42.60;;;22.25;;
75148;SDS011;63724;47.470;19.166;2022-11-15T12:54:54;38.15;;;20.33;;
75148;SDS011;63724;47.470;19.166;2022-11-15T12:58:24;38.13;;;19.97;;
75148;SDS011;63724;47.470;19.166;2022-11-15T13:04:39;35.58;;;20.13;;
75148;SDS011;63724;47.470;19.166;2022-11-15T13:10:47;48.60;;;23.98;;
75148;SDS011;63724;47.470;19.166;2022-11-15T13:13:49;41.53;;;21.07;;
75148;SDS011;63724;47.470;19.166;2022-11-15T13:16:58;40.83;;;21.13;;
75148;SDS011;63724;47.470;19.166;2022-11-15T13:26:16;36.00;;;20.02;;
75148;SDS011;63724;47.470;19.166;2022-11-15T13:29:19;36.87;;;19.80;;
75148;SDS011;63724;47.470;19.166;2022-11-15T13:32:22;41.03;;;21.98;;
75148;SDS011;63724;47.470;19.166;2022-11-15T13:35:27;41.88;;;21.33;;
75148;SDS011;63724;47.470;19.166;2022-11-15T13:38:34;42.05;;;21.65;;
75148;SDS011;63724;47.470;19.166;2022-11-15T13:41:47;39.97;;;21.50;;
75148;SDS011;63724;47.470;19.166;2022-11-15T13:44:54;37.27;;;20.00;;
75148;SDS011;63724;47.470;19.166;2022-11-15T13:48:04;32.92;;;19.20;;
75148;SDS011;63724;47.470;19.166;2022-11-15T13:51:10;32.92;;;18.60;;
75148;SDS011;63724;47.470;19.166;2022-11-15T13:57:29;32.03;;;18.27;;
75148;SDS011;63724;47.470;19.166;2022-11-15T14:00:44;33.47;;;19.47;;
75148;SDS011;63724;47.470;19.166;2022-11-15T14:03:52;31.98;;;18.85;;
75148;SDS011;63724;47.470;19.166;2022-11-15T14:06:57;37.55;;;19.13;;
75148;SDS011;63724;47.470;19.166;2022-11-15T14:10:16;32.33;;;18.30;;
75148;SDS011;63724;47.470;19.166;2022-11-15T14:13:27;34.88;;;19.42;;
75148;SDS011;63724;47.470;19.166;2022-11-15T14:19:40;31.60;;;17.27;;
75148;SDS011;63724;47.470;19.166;2022-11-15T14:22:50;30.55;;;17.95;;
75148;SDS011;63724;47.470;19.166;2022-11-15T14:26:02;31.52;;;17.67;;
75148;SDS011;63724;47.470;19.166;2022-11-15T14:32:29;31.93;;;17.00;;
75148;SDS011;63724;47.470;19.166;2022-11-15T14:35:45;29.80;;;16.35;;
75148;SDS011;63724;47.470;19.166;2022-11-15T14:38:48;28.20;;;16.48;;
75148;SDS011;63724;47.470;19.166;2022-11-15T14:41:50;28.90;;;15.55;;
75148;SDS011;63724;47.470;19.166;2022-11-15T14:44:52;28.08;;;16.45;;
75148;SDS011;63724;47.470;19.166;2022-11-15T14:47:55;27.37;;;15.73;;
75148;SDS011;63724;47.470;19.166;2022-11-15T14:50:57;25.95;;;15.75;;
75148;SDS011;63724;47.470;19.166;2022-11-15T14:53:59;34.80;;;15.85;;
75148;SDS011;63724;47.470;19.166;2022-11-15T14:57:02;26.27;;;14.98;;
75148;SDS011;63724;47.470;19.166;2022-11-15T15:00:04;25.35;;;14.65;;
75148;SDS011;63724;47.470;19.166;2022-11-15T15:03:13;27.20;;;15.43;;
75148;SDS011;63724;47.470;19.166;2022-11-15T15:06:16;25.65;;;15.25;;
75148;SDS011;63724;47.470;19.166;2022-11-15T15:09:19;30.00;;;16.02;;
75148;SDS011;63724;47.470;19.166;2022-11-15T15:12:22;31.25;;;17.75;;
75148;SDS011;63724;47.470;19.166;2022-11-15T15:15:26;28.90;;;16.88;;
75148;SDS011;63724;47.470;19.166;2022-11-15T15:18:32;25.97;;;14.87;;
75148;SDS011;63724;47.470;19.166;2022-11-15T15:21:35;28.80;;;16.40;;
75148;SDS011;63724;47.470;19.166;2022-11-15T15:24:38;26.95;;;15.13;;
75148;SDS011;63724;47.470;19.166;2022-11-15T15:27:40;26.70;;;15.75;;
75148;SDS011;63724;47.470;19.166;2022-11-15T15:30:43;26.00;;;15.68;;
75148;SDS011;63724;47.470;19.166;2022-11-15T15:33:45;29.77;;;16.30;;
75148;SDS011;63724;47.470;19.166;2022-11-15T15:36:47;28.73;;;16.75;;
75148;SDS011;63724;47.470;19.166;2022-11-15T15:39:50;29.30;;;16.83;;
75148;SDS011;63724;47.470;19.166;2022-11-15T15:42:54;34.65;;;17.70;;
75148;SDS011;63724;47.470;19.166;2022-11-15T15:45:56;35.13;;;17.75;;
75148;SDS011;63724;47.470;19.166;2022-11-15T15:48:58;27.87;;;16.13;;
75148;SDS011;63724;47.470;19.166;2022-11-15T15:52:01;33.88;;;17.92;;
75148;SDS011;63724;47.470;19.166;2022-11-15T15:55:03;35.38;;;18.48;;
75148;SDS011;63724;47.470;19.166;2022-11-15T15:58:05;39.58;;;18.70;;
75148;SDS011;63724;47.470;19.166;2022-11-15T16:01:10;50.25;;;20.48;;
75148;SDS011;63724;47.470;19.166;2022-11-15T16:04:12;70.40;;;27.17;;
75148;SDS011;63724;47.470;19.166;2022-11-15T16:07:20;45.63;;;20.85;;
75148;SDS011;63724;47.470;19.166;2022-11-15T16:10:26;54.58;;;23.00;;
75148;SDS011;63724;47.470;19.166;2022-11-15T16:13:30;43.40;;;21.23;;
75148;SDS011;63724;47.470;19.166;2022-11-15T16:16:32;49.33;;;22.52;;
75148;SDS011;63724;47.470;19.166;2022-11-15T16:19:35;38.40;;;19.37;;
75148;SDS011;63724;47.470;19.166;2022-11-15T16:22:38;38.40;;;18.88;;
75148;SDS011;63724;47.470;19.166;2022-11-15T16:25:41;33.38;;;18.67;;
75148;SDS011;63724;47.470;19.166;2022-11-15T16:28:47;32.00;;;17.92;;
75148;SDS011;63724;47.470;19.166;2022-11-15T16:31:49;40.25;;;19.85;;
75148;SDS011;63724;47.470;19.166;2022-11-15T16:34:52;43.57;;;21.30;;
75148;SDS011;63724;47.470;19.166;2022-11-15T16:37:54;38.53;;;20.05;;
75148;SDS011;63724;47.470;19.166;2022-11-15T16:40:59;43.00;;;21.40;;
75148;SDS011;63724;47.470;19.166;2022-11-15T16:44:01;49.83;;;22.77;;
75148;SDS011;63724;47.470;19.166;2022-11-15T16:47:04;55.95;;;25.00;;
75148;SDS011;63724;47.470;19.166;2022-11-15T16:50:08;47.43;;;23.20;;
75148;SDS011;63724;47.470;19.166;2022-11-15T16:53:16;43.83;;;21.95;;
75148;SDS011;63724;47.470;19.166;2022-11-15T16:59:31;47.47;;;23.33;;
75148;SDS011;63724;47.470;19.166;2022-11-15T17:02:39;46.97;;;23.63;;
75148;SDS011;63724;47.470;19.166;2022-11-15T17:05:41;50.70;;;24.30;;
75148;SDS011;63724;47.470;19.166;2022-11-15T17:08:44;70.88;;;36.65;;
75148;SDS011;63724;47.470;19.166;2022-11-15T17:11:47;65.93;;;36.58;;
75148;SDS011;63724;47.470;19.166;2022-11-15T17:14:49;116.53;;;76.15;;
75148;SDS011;63724;47.470;19.166;2022-11-15T17:17:52;81.22;;;46.80;;
75148;SDS011;63724;47.470;19.166;2022-11-15T17:20:55;58.10;;;30.30;;
75148;SDS011;63724;47.470;19.166;2022-11-15T17:23:57;55.10;;;25.60;;
75148;SDS011;63724;47.470;19.166;2022-11-15T17:27:00;57.83;;;25.95;;
75148;SDS011;63724;47.470;19.166;2022-11-15T17:30:03;55.78;;;25.48;;
75148;SDS011;63724;47.470;19.166;2022-11-15T17:33:06;55.97;;;26.88;;
75148;SDS011;63724;47.470;19.166;2022-11-15T17:36:09;59.50;;;26.80;;
75148;SDS011;63724;47.470;19.166;2022-11-15T17:39:13;59.45;;;26.83;;
75148;SDS011;63724;47.470;19.166;2022-11-15T17:42:15;55.60;;;27.13;;
75148;SDS011;63724;47.470;19.166;2022-11-15T17:45:17;60.92;;;27.90;;
75148;SDS011;63724;47.470;19.166;2022-11-15T17:48:19;54.45;;;26.52;;
75148;SDS011;63724;47.470;19.166;2022-11-15T17:51:22;57.60;;;28.07;;
75148;SDS011;63724;47.470;19.166;2022-11-15T17:54:25;57.40;;;27.90;;
75148;SDS011;63724;47.470;19.166;2022-11-15T17:57:27;59.85;;;28.67;;
75148;SDS011;63724;47.470;19.166;2022-11-15T18:00:29;56.65;;;26.85;;
75148;SDS011;63724;47.470;19.166;2022-11-15T18:03:32;63.67;;;28.95;;
75148;SDS011;63724;47.470;19.166;2022-11-15T18:06:36;60.90;;;26.57;;
75148;SDS011;63724;47.470;19.166;2022-11-15T18:09:38;58.30;;;27.17;;
75148;SDS011;63724;47.470;19.166;2022-11-15T18:12:44;66.57;;;28.33;;
75148;SDS011;63724;47.470;19.166;2022-11-15T18:15:52;66.20;;;28.60;;
75148;SDS011;63724;47.470;19.166;2022-11-15T18:18:56;64.82;;;28.63;;
75148;SDS011;63724;47.470;19.166;2022-11-15T18:21:59;58.50;;;26.40;;
75148;SDS011;63724;47.470;19.166;2022-11-15T18:25:02;56.67;;;26.05;;
75148;SDS011;63724;47.470;19.166;2022-11-15T18:28:05;62.92;;;27.92;;
75148;SDS011;63724;47.470;19.166;2022-11-15T18:31:18;63.28;;;27.83;;
75148;SDS011;63724;47.470;19.166;2022-11-15T18:34:26;62.83;;;26.75;;
75148;SDS011;63724;47.470;19.166;2022-11-15T18:37:33;60.07;;;27.10;;
75148;SDS011;63724;47.470;19.166;2022-11-15T18:40:35;67.68;;;27.20;;
75148;SDS011;63724;47.470;19.166;2022-11-15T18:43:38;64.60;;;27.92;;
75148;SDS011;63724;47.470;19.166;2022-11-15T18:46:41;68.07;;;30.70;;
75148;SDS011;63724;47.470;19.166;2022-11-15T18:49:45;68.07;;;30.17;;
75148;SDS011;63724;47.470;19.166;2022-11-15T18:52:47;58.60;;;27.10;;
75148;SDS011;63724;47.470;19.166;2022-11-15T18:55:49;57.60;;;26.10;;
75148;SDS011;63724;47.470;19.166;2022-11-15T18:58:56;65.20;;;27.88;;
75148;SDS011;63724;47.470;19.166;2022-11-15T19:01:59;53.70;;;25.65;;
75148;SDS011;63724;47.470;19.166;2022-11-15T19:05:01;60.67;;;28.08;;
75148;SDS011;63724;47.470;19.166;2022-11-15T19:08:04;57.43;;;25.13;;
75148;SDS011;63724;47.470;19.166;2022-11-15T19:11:07;56.80;;;26.05;;
75148;SDS011;63724;47.470;19.166;2022-11-15T19:14:12;60.67;;;29.05;;
75148;SDS011;63724;47.470;19.166;2022-11-15T19:17:16;60.15;;;27.45;;
75148;SDS011;63724;47.470;19.166;2022-11-15T19:20:18;61.70;;;29.20;;
75148;SDS011;63724;47.470;19.166;2022-11-15T19:23:22;54.73;;;26.40;;
75148;SDS011;63724;47.470;19.166;2022-11-15T19:26:25;60.03;;;27.15;;
75148;SDS011;63724;47.470;19.166;2022-11-15T19:29:27;64.38;;;29.02;;
75148;SDS011;63724;47.470;19.166;2022-11-15T19:32:30;58.05;;;27.80;;
75148;SDS011;63724;47.470;19.166;2022-11-15T19:35:32;62.67;;;28.27;;
75148;SDS011;63724;47.470;19.166;2022-11-15T19:38:34;62.57;;;29.33;;
75148;SDS011;63724;47.470;19.166;2022-11-15T19:41:41;55.35;;;26.98;;
75148;SDS011;63724;47.470;19.166;2022-11-15T19:44:44;58.47;;;30.45;;
75148;SDS011;63724;47.470;19.166;2022-11-15T19:47:47;54.97;;;27.02;;
75148;SDS011;63724;47.470;19.166;2022-11-15T19:50:49;55.00;;;26.00;;
75148;SDS011;63724;47.470;19.166;2022-11-15T19:53:53;57.30;;;29.13;;
75148;SDS011;63724;47.470;19.166;2022-11-15T19:56:57;56.15;;;26.17;;
75148;SDS011;63724;47.470;19.166;2022-11-15T20:00:00;63.03;;;28.30;;
75148;SDS011;63724;47.470;19.166;2022-11-15T20:03:07;58.20;;;26.35;;
75148;SDS011;63724;47.470;19.166;2022-11-15T20:06:11;59.53;;;27.42;;
75148;SDS011;63724;47.470;19.166;2022-11-15T20:09:16;58.47;;;27.43;;
75148;SDS011;63724;47.470;19.166;2022-11-15T20:12:19;55.88;;;25.70;;
75148;SDS011;63724;47.470;19.166;2022-11-15T20:15:21;58.22;;;27.33;;
75148;SDS011;63724;47.470;19.166;2022-11-15T20:18:24;53.28;;;24.60;;
75148;SDS011;63724;47.470;19.166;2022-11-15T20:21:27;55.08;;;25.10;;
75148;SDS011;63724;47.470;19.166;2022-11-15T20:24:30;50.50;;;23.27;;
75148;SDS011;63724;47.470;19.166;2022-11-15T20:27:32;51.15;;;24.65;;
75148;SDS011;63724;47.470;19.166;2022-11-15T20:30:34;52.90;;;24.90;;